Stanhope, Pennsylvania
Current Conditions -  °F | °C
As of 10:58 AM on Thursday 27 Nov 2014 (Local Time) from KMUI Reporting Station
Overcast Overcast  
Wind Chill: 31°   Ceiling: 5500
Heat Index: 35°   Visibility: 10mi
Dew Point: 26°   Wind: 5mph
Humidity: 69%   Direction: NA
Pressure: 30.04"   Gusts: NA
Location:  40.5592°N, 76.3347°W
Report Text: KMUI 271558Z AUTO VRB04KT 10SM OVC055 02/M03 A3004 RMK AO2 SLP180 T00161035 $
Loading
Personal Weather Stations






























Interactive Weather Map New forecast layout! Learn more

10-Day Weather Forecast

Advertisements
Track Severe Weather on mobile